Terminal Aerodrome Forecast
Issued by NWS

Home | Current Version | Previous Version | Graphics & Text | Print | Product List | Glossary On
Versions: 1 2 3 4 5 6 7 8 9 10 11 12 13 14 15 16
976
FTUS43 KFGF 080520
TAFBJI
TAF
KBJI 080520Z 0806/0906 31012KT P6SM OVC015
      TEMPO 0806/0808 2SM -SN OVC007
     FM080900 31011KT P6SM OVC010
     FM081300 31012KT P6SM OVC008
     FM090000 31010KT P6SM OVC010=

USA.gov is the U.S. government's official web portal to all federal, state and local government web resources and services.